Time;durP1;ratioP1;P1;durP2;ratioP2;P2;SDS_P1;SDS_P2;PMS_P1;PMS_P2;Temp;Humidity;BMP_temperature;BMP_pressure;BME280_temperature;BME280_humidity;BME280_pressure;Samples;Min_cycle;Max_cycle;Signal;HPM_P1;HPM_P2
2023/09/03 00:10:15;;;;;;;23.25;21.05;;;;;;;13.88;100.00;102472.81;4819728;29;20529;-72
2023/09/03 00:12:41;;;;;;;24.53;22.03;;;;;;;13.83;100.00;102470.19;4814364;29;20037;-72
2023/09/03 00:15:07;;;;;;;22.85;20.77;;;;;;;13.84;100.00;102480.72;4788851;29;20114;-70
2023/09/03 00:17:32;;;;;;;24.25;21.92;;;;;;;13.83;100.00;102481.63;4856095;29;20427;-70
2023/09/03 00:19:58;;;;;;;22.65;20.25;;;;;;;13.86;100.00;102459.66;4845203;29;20059;-70
2023/09/03 00:22:23;;;;;;;23.52;21.33;;;;;;;13.85;100.00;102469.31;4847099;29;20033;-70
2023/09/03 00:24:49;;;;;;;22.80;20.88;;;;;;;13.78;100.00;102464.94;4850676;29;20049;-72
2023/09/03 00:27:18;;;;;;;22.50;20.45;;;;;;;13.76;100.00;102479.84;4864458;29;20504;-72
2023/09/03 00:29:43;;;;;;;21.35;19.23;;;;;;;13.64;100.00;102488.59;4860526;29;20120;-72
2023/09/03 00:32:09;;;;;;;21.58;19.48;;;;;;;13.65;100.00;102482.47;4860694;29;20063;-72
2023/09/03 00:34:34;;;;;;;22.38;20.27;;;;;;;13.64;100.00;102483.34;4865921;29;20446;-72
2023/09/03 00:37:23;;;;;;;24.02;21.67;;;;;;;13.70;100.00;102479.84;4881523;29;20032;-70
2023/09/03 00:39:48;;;;;;;22.25;20.35;;;;;;;13.66;100.00;102478.97;4856498;29;20058;-72
2023/09/03 00:42:13;;;;;;;22.70;20.77;;;;;;;13.63;100.00;102478.97;4862143;29;20116;-70
2023/09/03 00:44:39;;;;;;;22.65;20.65;;;;;;;13.60;100.00;102484.22;4881086;29;20120;-70
2023/09/03 00:47:07;;;;;;;22.33;19.98;;;;;;;13.61;100.00;102495.66;4897204;29;20036;-70
2023/09/03 00:49:38;;;;;;;22.63;20.52;;;;;;;13.66;100.00;102493.88;4889108;29;20440;-72
2023/09/03 00:52:04;;;;;;;21.83;19.88;;;;;;;13.58;100.00;102493.00;4899243;29;20044;-72
2023/09/03 00:54:30;;;;;;;22.08;20.17;;;;;;;13.55;100.00;102492.97;4884935;29;20048;-72
2023/09/03 00:56:56;;;;;;;22.33;20.42;;;;;;;13.55;100.00;102499.13;4884809;29;20031;-72
2023/09/03 00:59:54;;;;;;;22.17;20.25;;;;;;;13.52;100.00;102507.03;4896083;29;20035;-72
2023/09/03 01:02:20;;;;;;;22.52;20.45;;;;;;;13.47;100.00;102512.25;4883975;29;20068;-72
2023/09/03 01:04:46;;;;;;;21.75;19.75;;;;;;;13.40;100.00;102507.84;4884083;29;21550;-73
2023/09/03 01:07:13;;;;;;;21.73;19.77;;;;;;;13.39;100.00;102514.03;4885134;29;20136;-72
2023/09/03 01:09:40;;;;;;;21.65;19.55;;;;;;;13.33;100.00;102511.31;4899235;29;20046;-72
2023/09/03 01:12:14;;;;;;;21.23;19.30;;;;;;;13.30;100.00;102522.75;4883106;29;20032;-72
2023/09/03 01:15:22;;;;;;;22.17;20.08;;;;;;;13.31;100.00;102510.44;4901030;29;20501;-72
2023/09/03 01:17:56;;;;;;;21.27;19.38;;;;;;;13.17;100.00;102495.47;4901054;29;20021;-72
2023/09/03 01:20:28;;;;;;;20.00;18.17;;;;;;;13.11;100.00;102491.94;4902996;29;20511;-72
2023/09/03 01:23:03;;;;;;;23.25;21.05;;;;;;;13.21;100.00;102495.50;4899109;29;20506;-72
2023/09/03 01:25:47;;;;;;;22.98;20.75;;;;;;;13.01;100.00;102496.28;4904918;29;20027;-72
2023/09/03 01:28:32;;;;;;;22.58;20.35;;;;;;;13.00;100.00;102492.78;4896596;29;20068;-72
2023/09/03 01:31:03;;;;;;;18.13;16.40;;;;;;;12.90;100.00;102490.97;4882215;29;20036;-72
2023/09/03 01:33:30;;;;;;;19.58;17.58;;;;;;;12.85;100.00;102497.97;4910703;29;20091;-72
2023/09/03 01:35:59;;;;;;;17.77;16.17;;;;;;;12.63;100.00;102499.59;4873092;29;20040;-72
2023/09/03 01:38:26;;;;;;;17.67;16.08;;;;;;;12.59;100.00;102500.44;4888958;29;20490;-72
2023/09/03 01:40:55;;;;;;;18.38;16.75;;;;;;;12.54;100.00;102497.78;4899131;29;20429;-72
2023/09/03 01:43:21;;;;;;;17.67;15.98;;;;;;;12.55;100.00;102498.66;4869926;29;20059;-72
2023/09/03 01:46:06;;;;;;;9.20;8.23;;;;;;;12.50;100.00;102497.72;4900737;29;20070;-72
2023/09/03 01:48:53;;;;;;;15.27;13.98;;;;;;;12.27;100.00;102487.97;4904781;29;20036;-72
2023/09/03 01:51:43;;;;;;;11.05;10.05;;;;;;;12.40;100.00;102491.56;4903632;29;20040;-72
2023/09/03 01:54:13;;;;;;;9.15;8.30;;;;;;;12.34;100.00;102495.03;4917220;29;20055;-72
2023/09/03 01:56:50;;;;;;;10.77;9.80;;;;;;;12.25;100.00;102500.19;4911535;29;20075;-72
2023/09/03 01:59:20;;;;;;;15.73;14.32;;;;;;;12.09;100.00;102493.94;4904028;29;20043;-72
2023/09/03 02:01:51;;;;;;;15.88;14.57;;;;;;;11.93;100.00;102503.41;4896702;29;20027;-72
2023/09/03 02:04:19;;;;;;;14.05;12.75;;;;;;;12.06;100.00;102517.56;4893949;29;20087;-73
2023/09/03 02:06:46;;;;;;;17.05;15.55;;;;;;;12.17;100.00;102515.00;4879224;29;20040;-72
2023/09/03 02:09:12;;;;;;;17.23;15.73;;;;;;;12.22;100.00;102513.31;4881663;29;20032;-73
2023/09/03 02:11:39;;;;;;;21.67;19.73;;;;;;;12.25;100.00;102518.59;4883774;29;20369;-73
2023/09/03 02:14:05;;;;;;;19.05;17.35;;;;;;;12.12;100.00;102517.59;4881534;29;20036;-73
2023/09/03 02:16:30;;;;;;;21.77;19.75;;;;;;;12.25;100.00;102516.81;4874240;29;20504;-72
2023/09/03 02:18:56;;;;;;;23.20;21.00;;;;;;;12.26;100.00;102515.09;4882800;29;20045;-73
2023/09/03 02:21:21;;;;;;;22.55;20.45;;;;;;;12.19;100.00;102534.31;4892209;29;20031;-72
2023/09/03 02:23:46;;;;;;;22.30;20.40;;;;;;;12.23;100.00;102529.09;4896131;29;20036;-73
2023/09/03 02:26:12;;;;;;;24.75;22.35;;;;;;;12.33;100.00;102527.44;4873280;29;20046;-72
2023/09/03 02:28:37;;;;;;;25.77;23.50;;;;;;;12.39;100.00;102516.94;4875557;29;20071;-72
2023/09/03 02:31:03;;;;;;;19.92;18.13;;;;;;;12.17;100.00;102534.31;4882849;29;20032;-72
2023/09/03 02:33:29;;;;;;;21.40;19.50;;;;;;;12.20;100.00;102533.47;4886002;29;20050;-73
2023/09/03 02:35:55;;;;;;;18.65;16.95;;;;;;;12.12;100.00;102544.78;4885536;29;20032;-72
2023/09/03 02:38:20;;;;;;;23.98;21.70;;;;;;;12.30;100.00;102533.53;4884734;29;20556;-72
2023/09/03 02:40:46;;;;;;;21.38;19.38;;;;;;;12.22;100.00;102529.09;4870729;29;20028;-72
2023/09/03 02:43:13;;;;;;;19.48;17.67;;;;;;;12.13;100.00;102527.25;4884502;29;20023;-72
2023/09/03 02:45:38;;;;;;;21.73;19.73;;;;;;;12.15;100.00;102514.13;4868325;29;20484;-72
2023/09/03 02:48:04;;;;;;;18.60;16.90;;;;;;;11.98;100.00;102517.47;4867093;29;20048;-72
2023/09/03 02:50:29;;;;;;;19.83;17.92;;;;;;;12.00;100.00;102507.88;4879495;29;20453;-72
2023/09/03 02:52:55;;;;;;;20.15;18.23;;;;;;;11.97;100.00;102515.72;4877866;29;20052;-72
2023/09/03 02:55:20;;;;;;;15.77;14.35;;;;;;;11.85;100.00;102513.84;4865911;29;20036;-72
2023/09/03 02:57:46;;;;;;;10.93;10.02;;;;;;;11.63;100.00;102514.47;4883988;29;20032;-72
2023/09/03 03:00:11;;;;;;;9.05;8.13;;;;;;;11.61;100.00;102519.72;4866492;29;20035;-72
2023/09/03 03:02:37;;;;;;;11.13;10.07;;;;;;;11.55;100.00;102524.88;4876502;29;20386;-72
2023/09/03 03:05:03;;;;;;;14.73;13.32;;;;;;;11.69;100.00;102546.06;4892300;29;20036;-72
2023/09/03 03:07:28;;;;;;;18.65;16.90;;;;;;;11.71;100.00;102542.59;4882789;29;20063;-72
2023/09/03 03:09:54;;;;;;;20.42;18.42;;;;;;;11.71;100.00;102534.72;4874949;29;20056;-72
2023/09/03 03:12:19;;;;;;;21.33;19.42;;;;;;;11.81;100.00;102525.19;4907824;29;20127;-72
2023/09/03 03:14:45;;;;;;;22.95;20.75;;;;;;;11.80;100.00;102526.03;4898030;29;20400;-72
2023/09/03 03:17:11;;;;;;;21.05;19.25;;;;;;;11.72;100.00;102525.97;4865834;29;20041;-72
2023/09/03 03:19:36;;;;;;;20.25;18.45;;;;;;;11.69;100.00;102523.28;4882294;29;20084;-73
2023/09/03 03:22:02;;;;;;;21.25;19.27;;;;;;;11.81;100.00;102512.06;4894427;29;20041;-72
2023/09/03 03:24:27;;;;;;;21.17;19.33;;;;;;;11.81;100.00;102498.91;4866686;29;20429;-72
2023/09/03 03:26:53;;;;;;;21.35;19.35;;;;;;;11.72;100.00;102497.09;4887353;29;20071;-72
2023/09/03 03:29:18;;;;;;;20.88;18.95;;;;;;;11.75;100.00;102489.22;4879775;29;20063;-72
2023/09/03 03:31:44;;;;;;;21.58;19.67;;;;;;;11.65;100.00;102489.09;4862443;29;20056;-72
2023/09/03 03:34:09;;;;;;;20.65;18.75;;;;;;;11.71;100.00;102486.53;4898320;29;20032;-72
2023/09/03 03:36:36;;;;;;;17.63;16.13;;;;;;;11.69;100.00;102496.16;4887596;29;20024;-72
2023/09/03 03:39:01;;;;;;;15.77;14.35;;;;;;;11.61;100.00;102501.34;4885332;29;20197;-72
2023/09/03 03:41:27;;;;;;;14.95;13.65;;;;;;;11.61;100.00;102517.09;4865177;29;20048;-69
2023/09/03 03:43:52;;;;;;;16.30;14.93;;;;;;;11.52;100.00;102532.72;4879536;29;20512;-70
2023/09/03 03:46:20;;;;;;;20.55;18.40;;;;;;;11.56;100.00;102535.41;4877587;29;20032;-70
2023/09/03 03:48:47;;;;;;;21.55;19.70;;;;;;;11.58;100.00;102532.81;4888756;29;20480;-70
2023/09/03 03:51:13;;;;;;;23.58;21.48;;;;;;;11.64;100.00;102522.38;4903212;29;20095;-69
2023/09/03 03:53:39;;;;;;;24.75;22.60;;;;;;;11.66;100.00;102525.88;4898547;29;20607;-69
2023/09/03 03:56:09;;;;;;;21.48;19.48;;;;;;;11.52;100.00;102524.84;4897725;29;20036;-69
2023/09/03 03:58:37;;;;;;;18.35;16.70;;;;;;;11.52;100.00;102535.34;4899151;29;20027;-69
2023/09/03 04:01:17;;;;;;;18.52;16.88;;;;;;;11.54;100.00;102539.78;4882091;29;20036;-70
2023/09/03 04:03:43;;;;;;;;;;;;;;;11.68;100.00;102547.81;4891762;29;20028;-70
2023/09/03 04:06:09;;;;;;;23.17;21.02;;;;;;;11.56;100.00;102545.03;4905093;29;20292;-69
2023/09/03 04:08:36;;;;;;;23.52;21.23;;;;;;;11.60;100.00;102557.34;4902760;29;20095;-70
2023/09/03 04:11:06;;;;;;;23.67;21.38;;;;;;;11.57;100.00;102552.94;4909990;29;20135;-70
2023/09/03 04:13:32;;;;;;;23.85;21.45;;;;;;;11.57;100.00;102545.06;4894427;29;20495;-70
2023/09/03 04:15:58;;;;;;;23.25;21.15;;;;;;;11.54;100.00;102550.28;4900117;29;20034;-69
2023/09/03 04:18:25;;;;;;;24.38;22.08;;;;;;;11.62;100.00;102550.34;4898642;29;20373;-70
2023/09/03 04:20:58;;;;;;;23.42;21.20;;;;;;;11.66;100.00;102546.88;4901759;29;20035;-70
2023/09/03 04:23:24;;;;;;;25.08;22.75;;;;;;;11.63;100.00;102546.88;4909670;29;20528;-70
2023/09/03 04:25:51;;;;;;;25.35;22.23;;;;;;;11.62;100.00;102552.97;4907942;29;20035;-70
2023/09/03 04:28:17;;;;;;;24.25;22.00;;;;;;;11.64;100.00;102547.72;4896319;29;20055;-70
2023/09/03 04:30:51;;;;;;;22.55;20.17;;;;;;;11.60;100.00;102552.94;4877577;29;20449;-73
2023/09/03 04:33:20;;;;;;;22.00;20.00;;;;;;;11.58;100.00;102551.19;4894742;29;20040;-72
2023/09/03 04:36:05;;;;;;;21.00;18.95;;;;;;;11.64;100.00;102551.25;4882943;29;20035;-72
2023/09/03 04:38:30;;;;;;;21.23;19.23;;;;;;;11.62;100.00;102552.97;4885324;29;20409;-72
2023/09/03 04:40:56;;;;;;;23.60;21.30;;;;;;;11.61;100.00;102553.84;4895507;29;20037;-72
2023/09/03 04:43:23;;;;;;;24.70;22.50;;;;;;;11.59;100.00;102552.94;4882975;29;20350;-72
2023/09/03 04:45:51;;;;;;;23.10;20.95;;;;;;;11.63;100.00;102552.13;4893009;29;20028;-72
2023/09/03 04:48:17;;;;;;;23.67;21.42;;;;;;;11.60;100.00;102555.56;4899167;29;20075;-72
2023/09/03 04:50:43;;;;;;;23.33;21.30;;;;;;;11.67;100.00;102574.91;4917688;29;20402;-72
2023/09/03 04:53:09;;;;;;;19.95;18.00;;;;;;;11.48;100.00;102576.47;4880634;29;20048;-72
2023/09/03 04:55:34;;;;;;;20.23;18.30;;;;;;;11.47;100.00;102586.94;4862498;29;20052;-73
2023/09/03 04:58:00;;;;;;;20.13;18.30;;;;;;;11.48;100.00;102588.69;4897601;29;20473;-72
2023/09/03 05:00:27;;;;;;;23.00;20.80;;;;;;;11.54;100.00;102594.03;4875957;29;20039;-72
2023/09/03 05:02:53;;;;;;;21.95;20.02;;;;;;;11.61;100.00;102593.25;4882720;29;20039;-72
2023/09/03 05:05:18;;;;;;;23.30;21.02;;;;;;;11.63;100.00;102591.50;4876074;29;20047;-72
2023/09/03 05:07:44;;;;;;;23.33;21.02;;;;;;;11.65;100.00;102602.03;4887311;29;20036;-72
2023/09/03 05:10:10;;;;;;;22.98;20.98;;;;;;;11.65;100.00;102602.94;4893122;29;20503;-72
2023/09/03 05:12:35;;;;;;;20.38;18.45;;;;;;;11.64;100.00;102610.75;4908253;29;20030;-72
2023/09/03 05:15:01;;;;;;;18.55;16.75;;;;;;;11.65;100.00;102608.19;4916969;29;20036;-72
2023/09/03 05:17:27;;;;;;;19.83;18.08;;;;;;;11.70;100.00;102606.47;4878357;29;20080;-72
2023/09/03 05:19:52;;;;;;;21.27;19.20;;;;;;;11.82;100.00;102608.34;4894360;29;20031;-72
2023/09/03 05:22:17;;;;;;;22.65;20.50;;;;;;;11.92;100.00;102601.47;4887723;29;20035;-72
2023/09/03 05:24:52;;;;;;;18.35;16.60;;;;;;;11.97;100.00;102607.69;4872651;29;20036;-72
2023/09/03 05:27:17;;;;;;;20.02;18.10;;;;;;;12.02;100.00;102608.59;4887575;29;20119;-72
2023/09/03 05:29:43;;;;;;;19.02;17.23;;;;;;;12.20;100.00;102609.69;4865216;29;20131;-72
2023/09/03 05:32:08;;;;;;;19.33;17.33;;;;;;;12.30;100.00;102609.75;4872471;29;20040;-73
2023/09/03 05:34:34;;;;;;;18.48;16.85;;;;;;;12.36;100.00;102608.06;4894119;29;20031;-72
2023/09/03 05:36:59;;;;;;;17.75;15.95;;;;;;;12.43;100.00;102616.00;4884543;29;20047;-73
2023/09/03 05:39:26;;;;;;;16.80;15.32;;;;;;;12.46;100.00;102621.28;4865062;29;20056;-72
2023/09/03 05:41:52;;;;;;;17.38;15.77;;;;;;;12.51;100.00;102623.09;4871573;29;20036;-72
2023/09/03 05:44:17;;;;;;;18.17;16.48;;;;;;;12.54;100.00;102620.47;4886502;29;20043;-72
2023/09/03 05:46:43;;;;;;;17.33;15.73;;;;;;;12.62;100.00;102617.03;4868979;29;20067;-72
2023/09/03 05:49:08;;;;;;;21.75;19.55;;;;;;;12.66;100.00;102612.72;4874702;29;20232;-72
2023/09/03 05:51:34;;;;;;;21.02;19.02;;;;;;;12.67;100.00;102613.56;4897184;29;20111;-73
2023/09/03 05:54:00;;;;;;;18.98;17.25;;;;;;;12.78;100.00;102612.78;4867627;29;20052;-72
2023/09/03 05:56:25;;;;;;;20.27;18.48;;;;;;;12.85;100.00;102624.25;4906403;29;20040;-72
2023/09/03 05:58:50;;;;;;;19.80;18.00;;;;;;;12.95;100.00;102628.69;4865964;29;20048;-72
2023/09/03 06:01:16;;;;;;;21.10;19.10;;;;;;;13.02;100.00;102637.53;4878813;29;20072;-72
2023/09/03 06:03:41;;;;;;;18.23;16.38;;;;;;;13.10;100.00;102646.34;4881338;29;20041;-72
2023/09/03 06:06:09;;;;;;;16.40;14.80;;;;;;;13.22;100.00;102640.28;4872827;29;20098;-72
2023/09/03 06:08:35;;;;;;;19.83;17.70;;;;;;;13.44;100.00;102649.19;4898226;29;20043;-72
2023/09/03 06:11:02;;;;;;;22.65;20.35;;;;;;;13.59;100.00;102652.78;4897212;29;20482;-72
2023/09/03 06:13:28;;;;;;;23.17;21.10;;;;;;;13.84;100.00;102659.91;4880808;29;20040;-72
2023/09/03 06:15:57;;;;;;;21.58;19.67;;;;;;;13.98;100.00;102667.00;4881377;29;20188;-72
2023/09/03 06:18:23;;;;;;;23.73;21.52;;;;;;;14.25;100.00;102658.28;4885763;29;20047;-73
2023/09/03 06:20:50;;;;;;;24.25;21.50;;;;;;;14.52;100.00;102667.09;4902122;29;20032;-72
2023/09/03 06:23:17;;;;;;;23.90;21.50;;;;;;;14.75;100.00;102659.22;4895614;29;20066;-72
2023/09/03 06:25:50;;;;;;;24.67;22.05;;;;;;;15.21;100.00;102679.44;4896869;29;20028;-72
2023/09/03 06:28:15;;;;;;;22.02;20.00;;;;;;;15.50;100.00;102674.09;4904435;29;20043;-73
2023/09/03 06:30:41;;;;;;;22.40;20.30;;;;;;;16.02;100.00;102680.94;4903481;29;20024;-73
2023/09/03 06:33:07;;;;;;;22.20;20.30;;;;;;;16.16;100.00;102685.28;4879880;29;20125;-73
2023/09/03 06:36:15;;;;;;;21.15;19.02;;;;;;;16.65;100.00;102692.91;4876942;29;20136;-73
2023/09/03 06:38:58;;;;;;;21.00;19.13;;;;;;;16.56;100.00;102708.84;4841705;29;20039;-70
2023/09/03 06:41:24;;;;;;;19.88;18.15;;;;;;;16.65;99.19;102710.53;4922274;29;20155;-70
2023/09/03 06:43:50;;;;;;;19.38;17.58;;;;;;;17.00;98.55;102709.44;4910255;29;20155;-67
2023/09/03 06:46:15;;;;;;;19.30;17.50;;;;;;;17.29;95.37;102717.94;4889089;29;20044;-68
2023/09/03 06:48:40;;;;;;;20.58;18.75;;;;;;;17.58;93.98;102718.53;4897040;29;20032;-68
2023/09/03 06:51:06;;;;;;;21.23;19.25;;;;;;;17.68;94.12;102722.84;4878047;29;20113;-68
2023/09/03 06:53:37;;;;;;;20.15;18.35;;;;;;;17.76;91.50;102722.78;4892818;29;20028;-68
2023/09/03 06:56:12;;;;;;;21.55;19.50;;;;;;;18.31;92.01;102732.66;4899645;29;20056;-67
2023/09/03 06:58:38;;;;;;;19.90;18.10;;;;;;;18.80;88.99;102730.19;4902930;29;20400;-68
2023/09/03 07:01:04;;;;;;;18.95;17.27;;;;;;;19.00;86.60;102733.41;4870436;29;20043;-67
2023/09/03 07:03:30;;;;;;;19.63;17.92;;;;;;;19.44;85.69;102727.31;4888343;29;20040;-68
2023/09/03 07:08:23;;;;;;;18.65;16.95;;;;;;;20.36;79.13;102738.75;4909090;29;20071;-70
2023/09/03 07:13:16;;;;;;;17.50;16.00;;;;;;;20.47;75.90;102735.81;4895989;29;20044;-70
2023/09/03 07:15:42;;;;;;;18.10;16.30;;;;;;;20.73;74.04;102735.25;4858994;29;20042;-70
2023/09/03 07:18:07;;;;;;;17.30;15.68;;;;;;;21.15;75.46;102736.88;4844533;29;20230;-70
2023/09/03 07:20:33;;;;;;;17.40;15.77;;;;;;;21.13;73.17;102743.13;4834568;29;20190;-70
2023/09/03 07:22:58;;;;;;;19.40;16.55;;;;;;;20.57;76.68;102739.13;4847478;29;20490;-69
2023/09/03 07:25:25;;;;;;;17.45;15.88;;;;;;;20.27;75.36;102733.63;4830170;29;20044;-69
2023/09/03 07:27:50;;;;;;;18.75;17.05;;;;;;;20.18;78.88;102737.34;4850398;29;20052;-70
2023/09/03 07:30:16;;;;;;;19.55;17.77;;;;;;;20.00;78.35;102738.66;4827737;29;20033;-70
2023/09/03 07:32:41;;;;;;;19.98;18.13;;;;;;;19.74;78.32;102737.38;4825259;29;20095;-70
2023/09/03 07:35:07;;;;;;;20.15;18.25;;;;;;;20.03;79.67;102743.03;4847565;29;20045;-70
2023/09/03 07:37:33;;;;;;;19.92;18.23;;;;;;;19.75;80.91;102738.22;4892948;23;20023;-68
2023/09/03 07:39:59;;;;;;;19.35;17.65;;;;;;;20.24;79.84;102752.31;4891026;29;20039;-68
2023/09/03 07:42:24;;;;;;;21.35;19.13;;;;;;;20.47;81.01;102757.13;4913522;29;20391;-68
2023/09/03 07:44:50;;;;;;;20.55;18.65;;;;;;;20.89;80.79;102761.53;4870257;29;20040;-69
2023/09/03 07:47:15;;;;;;;19.98;17.95;;;;;;;20.53;78.23;102756.09;4873719;29;20037;-70
2023/09/03 07:49:42;;;;;;;22.95;19.23;;;;;;;20.03;79.93;102759.88;4882459;29;20037;-69
2023/09/03 07:52:08;;;;;;;20.73;19.02;;;;;;;20.40;79.69;102764.38;4888421;29;20034;-70
2023/09/03 07:54:33;;;;;;;20.15;18.10;;;;;;;19.79;79.11;102763.91;4893943;29;20036;-70
2023/09/03 07:56:59;;;;;;;21.48;19.67;;;;;;;19.61;82.45;102773.09;4863451;29;20088;-70
2023/09/03 07:59:24;;;;;;;21.05;19.15;;;;;;;19.76;80.65;102771.03;4878333;29;20032;-70
2023/09/03 08:01:49;;;;;;;22.65;20.52;;;;;;;19.94;83.19;102762.72;4907031;29;20043;-71
2023/09/03 08:04:15;;;;;;;22.58;18.02;;;;;;;19.46;81.05;102762.75;4877572;29;20448;-69
2023/09/03 08:06:40;;;;;;;20.38;18.48;;;;;;;19.25;81.96;102764.00;4857425;29;20041;-69
2023/09/03 08:09:06;;;;;;;20.13;18.23;;;;;;;19.28;84.66;102764.84;4893019;29;20128;-69
2023/09/03 08:11:32;;;;;;;21.42;19.48;;;;;;;19.63;84.93;102765.09;4879023;29;20029;-69
2023/09/03 08:13:59;;;;;;;22.50;20.40;;;;;;;19.20;88.80;102764.09;4877185;29;20041;-69
2023/09/03 08:16:26;;;;;;;21.70;19.65;;;;;;;19.46;85.35;102762.75;4899843;29;20032;-69
2023/09/03 08:18:52;;;;;;;21.35;19.35;;;;;;;19.67;86.72;102754.34;4893326;29;20064;-69
2023/09/03 08:21:17;;;;;;;21.23;19.25;;;;;;;19.66;85.28;102749.06;4868756;29;20401;-69
2023/09/03 08:23:43;;;;;;;21.27;19.48;;;;;;;19.73;84.19;102756.00;4859352;29;20048;-71
2023/09/03 08:26:08;;;;;;;21.48;19.45;;;;;;;19.73;85.78;102759.53;4871230;29;20449;-71
2023/09/03 08:28:33;;;;;;;21.30;19.40;;;;;;;19.47;81.70;102754.72;4864105;29;20107;-69
2023/09/03 08:31:02;;;;;;;21.30;19.20;;;;;;;19.46;86.10;102762.75;4869940;29;20032;-69
2023/09/03 08:33:27;;;;;;;21.60;19.60;;;;;;;19.57;86.04;102763.41;4869005;29;20434;-69
2023/09/03 08:35:54;;;;;;;22.15;20.10;;;;;;;20.08;86.69;102758.00;4882687;29;20048;-69
2023/09/03 08:38:19;;;;;;;20.42;18.63;;;;;;;19.92;83.97;102755.69;4878560;29;20073;-69
2023/09/03 08:40:44;;;;;;;20.42;18.52;;;;;;;19.93;83.23;102763.63;4886523;29;20441;-69
2023/09/03 08:43:12;;;;;;;20.92;19.10;;;;;;;19.80;83.99;102768.31;4879683;29;20033;-69
2023/09/03 08:45:51;;;;;;;20.50;18.50;;;;;;;19.97;84.83;102770.66;4867332;29;20149;-68
2023/09/03 08:48:17;;;;;;;19.88;18.00;;;;;;;20.25;83.69;102775.38;4890509;29;20445;-70
2023/09/03 08:50:43;;;;;;;21.55;19.48;;;;;;;20.37;84.85;102780.44;4871494;29;20025;-69
2023/09/03 08:53:10;;;;;;;19.80;17.90;;;;;;;20.77;80.99;102778.66;4870551;29;20065;-68
2023/09/03 08:55:36;;;;;;;20.75;18.95;;;;;;;20.69;81.95;102768.19;4857403;29;20052;-68
2023/09/03 08:58:02;;;;;;;20.80;18.90;;;;;;;20.98;80.78;102774.59;4859796;29;20020;-68
2023/09/03 09:00:28;;;;;;;20.45;18.63;;;;;;;21.17;82.06;102777.66;4885947;29;20033;-68
2023/09/03 09:02:54;;;;;;;21.27;19.33;;;;;;;21.24;81.78;102784.59;4871137;29;20063;-68
2023/09/03 09:05:20;;;;;;;20.77;18.92;;;;;;;21.38;79.09;102781.56;4869824;29;20073;-68
2023/09/03 09:07:47;;;;;;;19.20;17.33;;;;;;;21.35;76.91;102775.44;4873185;29;20036;-69
2023/09/03 09:10:17;;;;;;;19.90;18.08;;;;;;;21.24;77.76;102776.59;4883828;29;20033;-68
2023/09/03 09:13:05;;;;;;;18.85;17.05;;;;;;;21.40;79.20;102769.06;4872875;29;20044;-68
2023/09/03 09:15:30;;;;;;;18.15;16.33;;;;;;;21.12;78.05;102760.94;4872061;29;20089;-68
2023/09/03 09:17:56;;;;;;;17.50;15.95;;;;;;;21.08;76.02;102762.78;4841614;29;20670;-69
2023/09/03 09:20:22;;;;;;;15.27;13.90;;;;;;;20.97;74.66;102772.84;4873585;29;20029;-69
2023/09/03 09:22:51;;;;;;;15.93;14.43;;;;;;;21.10;73.16;102776.06;4877548;29;20060;-69
2023/09/03 09:25:18;;;;;;;14.98;13.13;;;;;;;20.76;72.59;102772.47;4875094;29;20037;-69
2023/09/03 09:27:44;;;;;;;15.38;14.07;;;;;;;21.10;76.72;102768.06;4877734;29;20139;-69
2023/09/03 09:30:15;;;;;;;13.55;12.25;;;;;;;21.11;72.50;102770.69;4861547;29;20137;-70
2023/09/03 09:32:43;;;;;;;13.00;11.80;;;;;;;21.16;73.25;102761.72;4894027;29;20032;-70
2023/09/03 09:35:09;;;;;;;14.10;12.77;;;;;;;21.30;71.87;102767.56;4894288;29;20029;-71
2023/09/03 09:37:41;;;;;;;12.38;11.18;;;;;;;21.36;70.62;102762.06;4871905;29;20040;-69
2023/09/03 09:40:12;;;;;;;12.98;11.77;;;;;;;21.36;66.99;102767.38;4895765;29;20024;-68
2023/09/03 09:42:56;;;;;;;13.00;11.70;;;;;;;21.42;70.74;102766.34;4877475;29;20044;-69
2023/09/03 09:45:21;;;;;;;11.63;10.52;;;;;;;21.26;68.25;102761.44;4874911;29;20041;-69
2023/09/03 09:48:01;;;;;;;12.90;11.60;;;;;;;21.16;70.56;102759.94;4875435;29;20039;-69
2023/09/03 09:50:53;;;;;;;11.30;10.25;;;;;;;21.38;70.59;102754.91;4872116;29;20132;-68
2023/09/03 09:53:26;;;;;;;12.05;10.95;;;;;;;21.19;69.62;102751.88;4875416;29;20387;-67
2023/09/03 09:55:59;;;;;;;12.55;10.05;;;;;;;21.31;68.51;102748.00;4878865;29;20381;-68
2023/09/03 09:58:35;;;;;;;12.55;11.35;;;;;;;21.31;68.20;102753.31;4877061;29;20028;-68
2023/09/03 10:01:00;;;;;;;12.98;11.77;;;;;;;21.43;70.76;102747.66;4895177;29;20450;-69
2023/09/03 10:03:40;;;;;;;13.23;11.95;;;;;;;21.58;71.76;102754.41;4893047;29;20035;-69
2023/09/03 10:06:06;;;;;;;12.63;11.52;;;;;;;21.36;68.06;102746.06;4878905;29;20040;-69
2023/09/03 10:08:32;;;;;;;13.27;11.90;;;;;;;21.26;68.82;102752.56;4881185;29;20127;-69
2023/09/03 10:10:58;;;;;;;13.38;11.98;;;;;;;21.39;70.14;102750.44;4875989;29;20080;-69
2023/09/03 10:13:26;;;;;;;13.25;12.00;;;;;;;21.38;67.68;102754.91;4885240;29;20032;-69
2023/09/03 10:15:52;;;;;;;14.68;13.18;;;;;;;21.49;72.05;102761.75;4880274;29;20028;-69
2023/09/03 10:18:18;;;;;;;16.33;14.77;;;;;;;21.58;72.14;102759.72;4885219;29;20051;-69
2023/09/03 10:20:45;;;;;;;14.57;13.27;;;;;;;21.53;70.29;102756.31;4876247;29;20071;-68
2023/09/03 10:23:18;;;;;;;15.38;13.98;;;;;;;21.44;70.40;102749.41;4886542;29;20397;-69
2023/09/03 10:25:45;;;;;;;13.60;12.30;;;;;;;21.60;70.67;102749.00;4882642;29;20028;-69
2023/09/03 10:28:12;;;;;;;10.95;9.82;;;;;;;21.45;67.47;102743.16;4892349;29;20076;-69
2023/09/03 10:30:41;;;;;;;10.40;9.40;;;;;;;21.63;70.51;102744.44;4859918;29;20043;-70
2023/09/03 10:33:08;;;;;;;10.45;9.45;;;;;;;21.97;70.42;102739.94;5266745;23;20087;-68
2023/09/03 10:35:34;;;;;;;11.68;10.50;;;;;;;21.80;66.55;102735.97;4868286;29;20041;-69
2023/09/03 10:38:00;;;;;;;12.10;10.95;;;;;;;21.98;67.59;102749.72;4862330;29;20031;-68
2023/09/03 10:40:33;;;;;;;11.15;9.30;;;;;;;21.75;66.07;102747.69;4836292;29;20061;-69
2023/09/03 10:43:18;;;;;;;11.27;10.18;;;;;;;21.94;67.38;102748.06;4861012;29;20041;-68
2023/09/03 10:46:06;;;;;;;12.00;10.90;;;;;;;22.02;69.09;102751.34;4870123;29;20178;-69
2023/09/03 10:48:35;;;;;;;11.18;9.25;;;;;;;21.92;62.54;102753.44;4859431;29;20033;-69
2023/09/03 10:51:01;;;;;;;10.18;9.18;;;;;;;21.96;65.33;102752.41;4862459;29;20044;-68
2023/09/03 10:53:33;;;;;;;10.63;9.48;;;;;;;22.03;65.81;102757.59;4846582;29;20030;-69
2023/09/03 10:56:11;;;;;;;11.40;10.30;;;;;;;22.25;68.53;102760.47;4874368;29;20028;-69
2023/09/03 10:58:54;;;;;;;10.68;9.38;;;;;;;22.29;65.77;102756.78;4870576;29;20065;-68
2023/09/03 11:01:26;;;;;;;11.13;10.02;;;;;;;22.14;63.93;102755.47;4873731;29;20040;-69
2023/09/03 11:03:53;;;;;;;12.15;10.90;;;;;;;22.18;64.07;102757.09;4867617;29;20143;-69
2023/09/03 11:06:21;;;;;;;13.65;12.30;;;;;;;22.03;65.71;102755.78;4878321;29;20032;-69
2023/09/03 11:09:10;;;;;;;13.43;12.13;;;;;;;22.21;67.46;102750.81;4859512;29;20044;-68
2023/09/03 11:11:38;;;;;;;13.70;12.30;;;;;;;22.27;65.37;102747.97;4854816;29;20394;-68
2023/09/03 11:14:10;;;;;;;13.18;11.98;;;;;;;22.42;65.42;102749.31;4847589;29;20029;-68
2023/09/03 11:16:37;;;;;;;12.48;11.38;;;;;;;22.51;64.50;102756.16;4845434;29;20044;-68
2023/09/03 11:19:06;;;;;;;14.52;11.05;;;;;;;22.61;65.05;102760.25;4873307;29;20465;-69
2023/09/03 11:21:32;;;;;;;12.23;11.10;;;;;;;22.50;64.17;102757.94;4846898;29;20153;-69
2023/09/03 11:24:14;;;;;;;11.98;10.88;;;;;;;22.27;64.87;102766.66;4870018;29;20120;-68